Skip Navigation LinksHome page > Weather > Current weather Skip Navigation Links

Current Weather

Monterey Peninsula, Monterey, Calif.

For information only: do not use for flight planning or navigation.
Latest weather
Observation time Sunday, May 26, 2019 8:33 AM PDT
Local time Sunday, May 26, 2019 8:43 AM PDT
Flight conditions Marginal Visual Meteorological Conditions
Winds
Wind direction West-Southwest (240°)
Wind speed 6 mph
Visibility 10 mi.
Sky condition
Ceiling 1,300 ft. broken clouds
Cloud layer broken clouds 1,300 ft.
Cloud layer broken clouds 1,900 ft.
Cloud layer overcast 4,900 ft.
Temperature 53°F
Dewpoint 49°F
Altimeter 29.88 in.Hg
Derived measurements
Relative humidity 86%
Density altitude 76 ft.
Remarks
Automated weather observing station with precipitation discriminator.
METAR KMRY 261533Z 24005KT 10SM BKN013 BKN019 OVC049 12/09 A2988 RMK AO2 T01170094

Settings

Location code

InnerDrive.Weather 4.0.6770.0 Release CLR 4.0.30319.42000
Copyright ©2018 Inner Drive Technology. All rights reserved. Portions Copyright ©1986-2018 David Braverman.

Find weather

Site navigation


Skip Navigation Links

Place info

Page info

PayPal - The safer, easier way to pay online!

Return home.

Copyright ©2019 Inner Drive Technology. Purveyors of fine, hand-crafted computer software. Page printed 2019-05-26T15:43:09 UTC.